Hazlehurst, MS (39083)

8:17 PM CDT on March 30, 2015 (GMT -0500)
Crystal Springs Farm Mkt | | Change Station
CLOSE
Current Station
Personal Weather Station
Location: Crystal Springs, MS
Elevation: 453 ft
Nearby Weather Stations

Elev 453 ft 31.95 °N, 90.34 °W | Updated 13 minutes ago

Partly Cloudy
Partly Cloudy
71.0 °F
Feels Like 73 °F
N
0.0
Wind Variable Wind from WSW

Today
High -- | Low -- °F
--% Chance of Precip.
Yesterday
High -- | Low -- °F
Precip. -- in
6:52 AM 7:19 PM
Waxing Gibbous, 83% visible
Pressure 30.13 in
Visibility -9999.0 miles
Clouds Clear
Heat Index 73 °F
Dew Point 62 °F
Humidity 74%
Rainfall 0.00 in
Snow Depth Not available.
UV 0 out of 12
Pollen 11.80 out of 12
Air Quality Not available.
Flu Activity Not available.
METAR K1R7 310055Z AUTO 00000KT CLR 20/14 A3013 RMK AO2

More Conditions Fewer Conditions

Pressure 30.13 in
Visibility -9999.0 miles
Clouds Clear
Heat Index 73 °F
Dew Point 62 °F
Humidity 74%
Rainfall 0.00 in
Snow Depth Not available.
UV 0 out of 12
Pollen 11.80 out of 12
Air Quality Not available.
Flu Activity Not available.
METAR K1R7 310055Z AUTO 00000KT CLR 20/14 A3013 RMK AO2

More Conditions Fewer Conditions

10-Day Weather Forecast

Almanac

Astronomy

Mar. 30, 2015 Rise Set
Actual Time
Civil Twilight
Nautical Twilight
Astronomical Twilight
Moon
Length of Visible Light
Length of Day
Tomorrow will be .
, % of the Moon is Illuminated

Today's Extremes

State Highs State Lows

Community

WunderPhotos

Upload Photos

1,809,647 photos uploaded!

WunderBlogs® & News

Nearby

Air Quality

  Air Quality AQ Index Pollutant
Not available.

Snow Depth

Station Depth Elevation

Earthquake Activity

City Distance Mag. Time & Date
Minimum magnitude displayed is 2.5.

Coastal Water Temperatures

Place Temperature

Stations

Nearby Weather Stations

Station Location Temp. Windchill Dew Point Humidity Wind Precip. Elev Updated Type